chubbymoms.net alexa rank chart, chubbymoms.net alexa rank daily changes

chubbymoms.net alexa rank chart, chubbymoms.net alexa rank daily changes

chubbymoms.net
Actual rank:
544 848

RANK HISTORY

Date Rank Diff
2016/12/06 544 848 +8 106
2016/12/05 536 742 -8 663
2016/12/04 545 405 -20 807
2016/12/02 566 212 -1 212
2016/12/01 567 424 +16 800
2016/11/30 550 624 -118 889
2016/11/29 669 513 -11 802
2016/11/28 681 315 -2 563
2016/11/27 683 878 -7 814
2016/11/26 691 692 -7 958
2016/11/25 699 650 -145
2016/11/24 699 795 +8 582
2016/11/23 691 213 -78 629
2016/11/19 769 842 -7 133
2016/11/18 776 975 -132 136
2016/11/17 909 111 -33 182
2016/11/16 942 293 -32 761
2016/11/15 975 054 +40 071
2016/11/14 934 983 -10 475
2016/11/13 945 458 +12 039
2016/11/12 933 419 +57 616
2016/11/11 875 803 -6 636
2016/11/10 882 439 +13 760
2016/11/09 868 679 +46 118
2016/11/08 822 561 -50 348
2016/11/07 872 909 -29 379
2016/11/06 902 288 -68 422
2016/11/05 970 710 +12 349
2016/11/04 958 361 +30 572
2016/11/03 927 789 -8 888
2016/11/02 936 677 +394 535
2016/11/01 542 142 +9 877
2016/10/31 532 265 -37 777
2016/10/30 570 042 -2 343
2016/10/29 572 385 -6 562
2016/10/28 578 947 +686
2016/10/27 578 261 +40 672
2016/10/26 537 589 +68 707
2016/10/25 468 882 +44 170
2016/10/24 424 712 -4 626
2016/10/23 429 338 -6 283
2016/10/22 435 621 +17 729
2016/10/21 417 892 -1 078
2016/10/20 418 970 +13 116
2016/10/19 405 854 +2 112
2016/10/18 403 742 -7 591
2016/10/17 411 333 +47 662
2016/10/16 363 671 +9 951
2016/10/15 353 720 -84 607
2016/10/14 438 327 -82 152
2016/10/13 520 479 +5 290
2016/10/12 515 189 +25 717
2016/10/11 489 472 -13 407
2016/10/10 502 879 -97
2016/10/09 502 976 -13 408
2016/10/08 516 384 +184 124
2016/10/07 332 260

WIDGET FOR YOUR SITE

DOMAINS WITH THE NEAREST RANK

Domain Rank
yamatyuu.net 544 843
kineticsnoise.com 544 844
kanji-a-day.com 544 845
dubrovnikpress.hr 544 846
clinicalmedicine.ir 544 847
chubbymoms.net 544 848
shortsell.nl 544 849
kermaneno.ir 544 850
secv.com 544 851
directtoolsoutlet.com 544 852
gcx.co.il 544 853

DOMAINS WITH THE NEAREST RANK BY TLD .net

Domain Rank
psicolab.net 544 758
vipphimsex.net 544 779
linuxthebest.net 544 807
photomaterial.net 544 824
yamatyuu.net 544 843
chubbymoms.net 544 848
smartfreehosting.net 544 872
intaa.net 544 882
maddonna.net 544 886
ludosln.net 544 939
alfiqh.net 544 970